sensor_id;sensor_type;location;lat;lon;timestamp;pressure;altitude;pressure_sealevel;temperature;humidity
57574;BME280;63722;48.858;21.906;2023-02-01T00:01:32;98071.50;;;22.16;38.17
57574;BME280;63722;48.858;21.906;2023-02-01T00:03:57;98071.50;;;22.16;38.12
57574;BME280;63722;48.858;21.906;2023-02-01T00:06:23;98071.50;;;22.11;38.22
57574;BME280;63722;48.858;21.906;2023-02-01T00:08:52;98076.84;;;22.11;38.07
57574;BME280;63722;48.858;21.906;2023-02-01T00:11:17;98070.69;;;22.05;38.36
57574;BME280;63722;48.858;21.906;2023-02-01T00:13:43;98064.03;;;22.08;38.25
57574;BME280;63722;48.858;21.906;2023-02-01T00:16:09;98063.22;;;22.12;38.20
57574;BME280;63722;48.858;21.906;2023-02-01T00:18:35;98060.03;;;22.15;37.97
57574;BME280;63722;48.858;21.906;2023-02-01T00:21:01;98070.16;;;22.08;38.01
57574;BME280;63722;48.858;21.906;2023-02-01T00:23:27;98066.72;;;22.08;38.10
57574;BME280;63722;48.858;21.906;2023-02-01T00:25:52;98067.22;;;22.10;38.13
57574;BME280;63722;48.858;21.906;2023-02-01T00:28:18;98053.34;;;22.13;38.00
57574;BME280;63722;48.858;21.906;2023-02-01T00:30:43;98032.50;;;22.10;37.87
57574;BME280;63722;48.858;21.906;2023-02-01T00:33:09;98036.53;;;22.12;37.91
57574;BME280;63722;48.858;21.906;2023-02-01T00:35:35;98038.91;;;22.09;38.16
57574;BME280;63722;48.858;21.906;2023-02-01T00:38:00;98044.81;;;22.11;38.11
57574;BME280;63722;48.858;21.906;2023-02-01T00:40:26;98047.47;;;22.06;38.04
57574;BME280;63722;48.858;21.906;2023-02-01T00:42:51;98053.63;;;22.06;37.77
57574;BME280;63722;48.858;21.906;2023-02-01T00:45:17;98055.50;;;22.11;38.00
57574;BME280;63722;48.858;21.906;2023-02-01T00:47:42;98051.72;;;22.12;37.98
57574;BME280;63722;48.858;21.906;2023-02-01T00:50:08;98053.09;;;22.09;37.89
57574;BME280;63722;48.858;21.906;2023-02-01T00:52:34;98034.13;;;22.06;37.95
57574;BME280;63722;48.858;21.906;2023-02-01T00:54:59;98048.00;;;22.08;37.84
57574;BME280;63722;48.858;21.906;2023-02-01T00:57:25;98043.72;;;22.07;37.83
57574;BME280;63722;48.858;21.906;2023-02-01T00:59:50;98041.03;;;22.12;37.93
57574;BME280;63722;48.858;21.906;2023-02-01T01:02:15;98032.78;;;22.13;37.77
57574;BME280;63722;48.858;21.906;2023-02-01T01:04:41;98026.63;;;22.03;37.91
57574;BME280;63722;48.858;21.906;2023-02-01T01:07:06;98026.66;;;22.08;38.00
57574;BME280;63722;48.858;21.906;2023-02-01T01:09:31;98017.03;;;22.07;38.11
57574;BME280;63722;48.858;21.906;2023-02-01T01:11:57;98026.66;;;21.97;38.01
57574;BME280;63722;48.858;21.906;2023-02-01T01:14:27;98021.31;;;22.08;38.02
57574;BME280;63722;48.858;21.906;2023-02-01T01:16:53;98017.03;;;22.07;37.83
57574;BME280;63722;48.858;21.906;2023-02-01T01:19:18;98011.69;;;22.07;38.10
57574;BME280;63722;48.858;21.906;2023-02-01T01:21:43;98005.28;;;22.03;37.86
57574;BME280;63722;48.858;21.906;2023-02-01T01:24:09;98003.16;;;22.10;38.01
57574;BME280;63722;48.858;21.906;2023-02-01T01:26:34;97998.06;;;22.08;37.63
57574;BME280;63722;48.858;21.906;2023-02-01T01:29:00;98011.44;;;22.03;37.85
57574;BME280;63722;48.858;21.906;2023-02-01T01:31:27;98009.84;;;21.97;37.98
57574;BME280;63722;48.858;21.906;2023-02-01T01:33:55;98011.94;;;22.10;37.93
57574;BME280;63722;48.858;21.906;2023-02-01T01:36:21;98002.88;;;22.01;37.99
57574;BME280;63722;48.858;21.906;2023-02-01T01:38:48;97988.50;;;21.97;37.92
57574;BME280;63722;48.858;21.906;2023-02-01T01:41:16;97991.66;;;22.04;37.95
57574;BME280;63722;48.858;21.906;2023-02-01T01:43:54;97988.19;;;22.09;37.86
57574;BME280;63722;48.858;21.906;2023-02-01T01:46:26;97986.06;;;22.11;37.67
57574;BME280;63722;48.858;21.906;2023-02-01T01:49:11;97983.38;;;22.06;37.75
57574;BME280;63722;48.858;21.906;2023-02-01T01:51:41;97984.19;;;22.01;37.84
57574;BME280;63722;48.858;21.906;2023-02-01T01:54:12;97980.44;;;22.07;37.77
57574;BME280;63722;48.858;21.906;2023-02-01T01:56:40;97997.28;;;21.97;37.87
57574;BME280;63722;48.858;21.906;2023-02-01T01:59:07;97999.41;;;22.06;37.71
57574;BME280;63722;48.858;21.906;2023-02-01T02:01:33;98002.09;;;22.11;37.58
57574;BME280;63722;48.858;21.906;2023-02-01T02:03:58;98002.34;;;21.99;38.08
57574;BME280;63722;48.858;21.906;2023-02-01T02:06:53;98018.09;;;22.06;37.91
57574;BME280;63722;48.858;21.906;2023-02-01T02:09:16;98009.00;;;22.12;37.69
57574;BME280;63722;48.858;21.906;2023-02-01T02:11:42;98020.78;;;21.95;38.27
57574;BME280;63722;48.858;21.906;2023-02-01T02:14:09;98021.31;;;21.97;37.91
57574;BME280;63722;48.858;21.906;2023-02-01T02:19:21;98040.53;;;22.05;37.83
57574;BME280;63722;48.858;21.906;2023-02-01T02:22:22;98027.47;;;22.03;37.83
57574;BME280;63722;48.858;21.906;2023-02-01T02:27:59;98026.63;;;22.03;37.47
57574;BME280;63722;48.858;21.906;2023-02-01T02:36:47;98034.13;;;21.95;37.82
57574;BME280;63722;48.858;21.906;2023-02-01T02:39:34;98020.25;;;21.98;37.72
57574;BME280;63722;48.858;21.906;2023-02-01T02:45:09;98023.19;;;21.97;37.83
57574;BME280;63722;48.858;21.906;2023-02-01T02:48:04;98029.84;;;21.94;37.75
57574;BME280;63722;48.858;21.906;2023-02-01T02:53:33;98001.03;;;21.91;37.76
57574;BME280;63722;48.858;21.906;2023-02-01T02:56:21;98010.13;;;21.95;37.68
57574;BME280;63722;48.858;21.906;2023-02-01T02:59:07;98010.13;;;21.95;37.70
57574;BME280;63722;48.858;21.906;2023-02-01T03:01:53;97983.97;;;21.92;37.56
57574;BME280;63722;48.858;21.906;2023-02-01T03:04:37;97977.28;;;22.00;37.40
57574;BME280;63722;48.858;21.906;2023-02-01T03:13:07;97969.81;;;21.97;37.66
57574;BME280;63722;48.858;21.906;2023-02-01T03:16:40;97972.19;;;21.98;37.45
57574;BME280;63722;48.858;21.906;2023-02-01T03:21:08;97979.94;;;21.95;37.50
57574;BME280;63722;48.858;21.906;2023-02-01T03:23:36;97969.53;;;21.88;37.56
57574;BME280;63722;48.858;21.906;2023-02-01T03:26:07;97985.03;;;21.91;37.64
57574;BME280;63722;48.858;21.906;2023-02-01T03:28:37;98001.03;;;21.96;37.65
57574;BME280;63722;48.858;21.906;2023-02-01T03:31:07;98005.31;;;21.92;37.56
57574;BME280;63722;48.858;21.906;2023-02-01T03:33:33;97998.91;;;21.88;37.71
57574;BME280;63722;48.858;21.906;2023-02-01T03:41:31;98007.97;;;21.97;37.45
57574;BME280;63722;48.858;21.906;2023-02-01T03:44:08;98011.19;;;21.89;37.54
57574;BME280;63722;48.858;21.906;2023-02-01T03:46:48;98019.19;;;21.94;37.55
57574;BME280;63722;48.858;21.906;2023-02-01T03:49:21;98029.84;;;21.94;37.55
57574;BME280;63722;48.858;21.906;2023-02-01T03:51:50;98024.00;;;21.97;37.52
57574;BME280;63722;48.858;21.906;2023-02-01T03:54:17;98024.00;;;21.97;37.40
57574;BME280;63722;48.858;21.906;2023-02-01T03:56:46;98024.00;;;21.97;37.58
57574;BME280;63722;48.858;21.906;2023-02-01T03:59:13;98024.50;;;21.99;37.34
57574;BME280;63722;48.858;21.906;2023-02-01T04:01:39;98015.97;;;21.97;37.30
57574;BME280;63722;48.858;21.906;2023-02-01T04:04:05;98040.00;;;21.97;37.69
57574;BME280;63722;48.858;21.906;2023-02-01T04:06:30;98046.69;;;22.00;37.46
57574;BME280;63722;48.858;21.906;2023-02-01T04:08:55;98060.31;;;21.98;37.32
57574;BME280;63722;48.858;21.906;2023-02-01T04:11:21;98072.03;;;21.97;37.45
57574;BME280;63722;48.858;21.906;2023-02-01T04:13:46;98094.44;;;21.96;37.22
57574;BME280;63722;48.858;21.906;2023-02-01T04:16:12;98113.69;;;21.98;37.33
57574;BME280;63722;48.858;21.906;2023-02-01T04:18:37;98116.91;;;21.95;37.31
57574;BME280;63722;48.858;21.906;2023-02-01T04:21:03;98133.72;;;21.91;37.65
57574;BME280;63722;48.858;21.906;2023-02-01T04:23:29;98141.19;;;21.99;37.25
57574;BME280;63722;48.858;21.906;2023-02-01T04:25:59;98147.06;;;21.96;37.43
57574;BME280;63722;48.858;21.906;2023-02-01T04:28:24;98135.56;;;21.90;37.42
57574;BME280;63722;48.858;21.906;2023-02-01T04:30:49;98112.63;;;21.89;37.39
57574;BME280;63722;48.858;21.906;2023-02-01T04:33:15;98100.34;;;21.88;37.46
57574;BME280;63722;48.858;21.906;2023-02-01T04:35:40;98097.13;;;21.96;37.43
57574;BME280;63722;48.858;21.906;2023-02-01T04:38:06;98104.06;;;21.97;37.45
57574;BME280;63722;48.858;21.906;2023-02-01T04:40:32;98112.34;;;21.91;37.18
57574;BME280;63722;48.858;21.906;2023-02-01T04:42:58;98098.19;;;22.00;37.18
57574;BME280;63722;48.858;21.906;2023-02-01T04:45:25;98099.81;;;21.91;37.38
57574;BME280;63722;48.858;21.906;2023-02-01T04:47:50;98094.47;;;21.91;37.24
57574;BME280;63722;48.858;21.906;2023-02-01T04:50:16;98102.47;;;21.91;37.38
57574;BME280;63722;48.858;21.906;2023-02-01T04:52:41;98104.88;;;21.93;37.42
57574;BME280;63722;48.858;21.906;2023-02-01T04:55:07;98111.56;;;21.95;37.30
57574;BME280;63722;48.858;21.906;2023-02-01T04:57:32;98113.41;;;21.90;37.37
57574;BME280;63722;48.858;21.906;2023-02-01T04:59:58;98112.63;;;21.89;37.29
57574;BME280;63722;48.858;21.906;2023-02-01T05:02:23;98106.47;;;21.99;37.27
57574;BME280;63722;48.858;21.906;2023-02-01T05:04:48;98111.81;;;21.89;37.41
57574;BME280;63722;48.858;21.906;2023-02-01T05:07:15;98115.03;;;21.91;37.36
57574;BME280;63722;48.858;21.906;2023-02-01T05:09:41;98113.41;;;21.90;37.33
57574;BME280;63722;48.858;21.906;2023-02-01T05:12:06;98122.25;;;21.95;36.91
57574;BME280;63722;48.858;21.906;2023-02-01T05:14:51;98124.34;;;21.93;37.41
57574;BME280;63722;48.858;21.906;2023-02-01T05:17:16;98123.81;;;21.91;37.17
57574;BME280;63722;48.858;21.906;2023-02-01T05:19:42;98116.88;;;21.85;37.36
57574;BME280;63722;48.858;21.906;2023-02-01T05:22:07;98125.44;;;21.92;37.06
57574;BME280;63722;48.858;21.906;2023-02-01T05:24:32;98123.84;;;22.02;37.22
57574;BME280;63722;48.858;21.906;2023-02-01T05:26:58;98125.97;;;22.10;36.94
57574;BME280;63722;48.858;21.906;2023-02-01T05:29:23;98129.69;;;22.09;36.97
57574;BME280;63722;48.858;21.906;2023-02-01T05:31:48;98128.63;;;22.10;37.15
57574;BME280;63722;48.858;21.906;2023-02-01T05:34:14;98127.56;;;22.16;37.04
57574;BME280;63722;48.858;21.906;2023-02-01T05:36:40;98139.31;;;22.15;37.05
57574;BME280;63722;48.858;21.906;2023-02-01T05:39:06;98136.94;;;22.18;37.00
57574;BME280;63722;48.858;21.906;2023-02-01T05:41:31;98135.56;;;22.21;36.78
57574;BME280;63722;48.858;21.906;2023-02-01T05:43:56;98134.50;;;22.27;36.69
57574;BME280;63722;48.858;21.906;2023-02-01T05:46:22;98140.94;;;22.31;36.60
57574;BME280;63722;48.858;21.906;2023-02-01T05:48:47;98124.13;;;22.31;36.72
57574;BME280;63722;48.858;21.906;2023-02-01T05:51:13;98129.19;;;22.38;36.51
57574;BME280;63722;48.858;21.906;2023-02-01T05:53:38;98136.66;;;22.41;36.46
57574;BME280;63722;48.858;21.906;2023-02-01T05:56:04;98134.56;;;22.32;36.62
57574;BME280;63722;48.858;21.906;2023-02-01T05:58:30;98134.28;;;22.39;36.74
57574;BME280;63722;48.858;21.906;2023-02-01T06:00:55;98134.78;;;22.41;36.72
57574;BME280;63722;48.858;21.906;2023-02-01T06:03:21;98123.03;;;22.42;36.66
57574;BME280;63722;48.858;21.906;2023-02-01T06:05:47;98134.81;;;22.46;36.47
57574;BME280;63722;48.858;21.906;2023-02-01T06:08:13;98127.03;;;22.50;36.55
57574;BME280;63722;48.858;21.906;2023-02-01T06:10:39;98125.97;;;22.46;36.52
57574;BME280;63722;48.858;21.906;2023-02-01T06:13:04;98131.03;;;22.47;36.25
57574;BME280;63722;48.858;21.906;2023-02-01T06:15:30;98141.25;;;21.25;31.83
57574;BME280;63722;48.858;21.906;2023-02-01T06:17:56;98145.38;;;21.54;35.14
57574;BME280;63722;48.858;21.906;2023-02-01T06:20:21;98144.63;;;21.84;34.80
57574;BME280;63722;48.858;21.906;2023-02-01T06:22:47;98140.66;;;22.07;34.83
57574;BME280;63722;48.858;21.906;2023-02-01T06:25:12;98145.50;;;22.31;34.77
57574;BME280;63722;48.858;21.906;2023-02-01T06:27:38;98147.63;;;22.34;34.91
57574;BME280;63722;48.858;21.906;2023-02-01T06:30:05;98145.75;;;22.40;35.36
57574;BME280;63722;48.858;21.906;2023-02-01T06:32:30;98132.13;;;22.46;35.10
57574;BME280;63722;48.858;21.906;2023-02-01T06:34:56;98150.81;;;22.51;35.09
57574;BME280;63722;48.858;21.906;2023-02-01T06:37:22;98141.97;;;22.61;35.23
57574;BME280;63722;48.858;21.906;2023-02-01T06:39:50;98148.66;;;22.64;35.05
57574;BME280;63722;48.858;21.906;2023-02-01T06:42:15;98145.19;;;22.63;35.52
57574;BME280;63722;48.858;21.906;2023-02-01T06:44:40;98142.25;;;22.70;35.38
57574;BME280;63722;48.858;21.906;2023-02-01T06:47:06;98148.41;;;22.65;35.76
57574;BME280;63722;48.858;21.906;2023-02-01T06:49:31;98149.19;;;22.61;35.77
57574;BME280;63722;48.858;21.906;2023-02-01T06:51:57;98142.00;;;22.66;35.94
57574;BME280;63722;48.858;21.906;2023-02-01T06:54:25;98141.47;;;22.49;36.25
57574;BME280;63722;48.858;21.906;2023-02-01T06:56:51;98137.16;;;22.58;36.09
57574;BME280;63722;48.858;21.906;2023-02-01T06:59:16;98147.59;;;22.70;35.87
57574;BME280;63722;48.858;21.906;2023-02-01T07:01:42;98151.59;;;22.62;36.17
57574;BME280;63722;48.858;21.906;2023-02-01T07:04:10;98158.03;;;22.66;36.06
57574;BME280;63722;48.858;21.906;2023-02-01T07:06:36;98165.22;;;22.71;35.83
57574;BME280;63722;48.858;21.906;2023-02-01T07:09:01;98167.09;;;22.65;35.95
57574;BME280;63722;48.858;21.906;2023-02-01T07:11:27;98159.63;;;22.62;37.82
57574;BME280;63722;48.858;21.906;2023-02-01T07:13:53;98155.63;;;22.65;37.43
57574;BME280;63722;48.858;21.906;2023-02-01T07:16:19;98152.41;;;22.68;37.48
57574;BME280;63722;48.858;21.906;2023-02-01T07:18:44;98160.94;;;22.75;37.53
57574;BME280;63722;48.858;21.906;2023-02-01T07:21:10;98150.25;;;22.75;37.78
57574;BME280;63722;48.858;21.906;2023-02-01T07:23:36;98149.69;;;22.83;37.60
57574;BME280;63722;48.858;21.906;2023-02-01T07:26:05;98150.53;;;22.68;37.87
57574;BME280;63722;48.858;21.906;2023-02-01T07:28:33;98144.63;;;22.71;37.63
57574;BME280;63722;48.858;21.906;2023-02-01T07:31:16;98141.44;;;22.75;37.44
57574;BME280;63722;48.858;21.906;2023-02-01T07:33:44;98143.00;;;22.86;37.32
57574;BME280;63722;48.858;21.906;2023-02-01T07:36:14;98152.09;;;22.80;37.80
57574;BME280;63722;48.858;21.906;2023-02-01T07:38:40;98144.59;;;22.92;37.67
57574;BME280;63722;48.858;21.906;2023-02-01T07:41:07;98147.50;;;23.01;37.60
57574;BME280;63722;48.858;21.906;2023-02-01T07:43:33;98148.28;;;23.01;37.71
57574;BME280;63722;48.858;21.906;2023-02-01T07:46:01;98155.25;;;23.02;37.69
57574;BME280;63722;48.858;21.906;2023-02-01T07:48:27;98153.38;;;23.03;37.73
57574;BME280;63722;48.858;21.906;2023-02-01T07:51:09;98154.19;;;23.09;37.48
57574;BME280;63722;48.858;21.906;2023-02-01T07:53:35;98155.22;;;23.07;37.75
57574;BME280;63722;48.858;21.906;2023-02-01T07:56:02;98147.78;;;23.10;37.65
57574;BME280;63722;48.858;21.906;2023-02-01T07:58:28;98154.44;;;23.12;37.65
57574;BME280;63722;48.858;21.906;2023-02-01T08:00:54;98150.19;;;23.11;37.73
57574;BME280;63722;48.858;21.906;2023-02-01T08:03:38;98139.69;;;23.25;37.56
57574;BME280;63722;48.858;21.906;2023-02-01T08:06:04;98145.31;;;23.23;37.52
57574;BME280;63722;48.858;21.906;2023-02-01T08:08:30;98147.66;;;23.35;37.89
57574;BME280;63722;48.858;21.906;2023-02-01T08:11:02;98145.53;;;23.32;37.67
57574;BME280;63722;48.858;21.906;2023-02-01T08:13:29;98147.66;;;23.40;37.73
57574;BME280;63722;48.858;21.906;2023-02-01T08:15:58;98138.06;;;23.29;37.91
57574;BME280;63722;48.858;21.906;2023-02-01T08:18:24;98143.38;;;23.39;37.56
57574;BME280;63722;48.858;21.906;2023-02-01T08:20:49;98139.13;;;23.33;37.91
57574;BME280;63722;48.858;21.906;2023-02-01T08:23:16;98135.31;;;23.45;38.10
57574;BME280;63722;48.858;21.906;2023-02-01T08:25:42;98136.59;;;23.52;37.59
57574;BME280;63722;48.858;21.906;2023-02-01T08:28:08;98126.22;;;23.46;37.76
57574;BME280;63722;48.858;21.906;2023-02-01T08:30:33;98127.88;;;23.36;38.13
57574;BME280;63722;48.858;21.906;2023-02-01T08:32:59;98125.38;;;23.50;38.05
57574;BME280;63722;48.858;21.906;2023-02-01T08:35:26;98126.72;;;23.53;37.93
57574;BME280;63722;48.858;21.906;2023-02-01T08:37:51;98135.84;;;23.47;37.89
57574;BME280;63722;48.858;21.906;2023-02-01T08:40:17;98134.28;;;23.40;38.24
57574;BME280;63722;48.858;21.906;2023-02-01T08:42:42;98146.28;;;23.43;38.49
57574;BME280;63722;48.858;21.906;2023-02-01T08:45:18;98143.81;;;23.57;37.97
57574;BME280;63722;48.858;21.906;2023-02-01T08:47:45;98131.75;;;23.59;38.16
57574;BME280;63722;48.858;21.906;2023-02-01T08:50:12;98136.78;;;23.71;38.01
57574;BME280;63722;48.858;21.906;2023-02-01T08:52:37;98132.81;;;23.64;38.13
57574;BME280;63722;48.858;21.906;2023-02-01T08:55:03;98125.28;;;23.66;38.38
57574;BME280;63722;48.858;21.906;2023-02-01T08:57:29;98124.00;;;23.58;38.78
57574;BME280;63722;48.858;21.906;2023-02-01T08:59:54;98132.53;;;23.60;38.54
57574;BME280;63722;48.858;21.906;2023-02-01T09:02:19;98132.25;;;23.67;38.62
57574;BME280;63722;48.858;21.906;2023-02-01T09:04:45;98134.97;;;23.56;38.66
57574;BME280;63722;48.858;21.906;2023-02-01T09:07:11;98140.53;;;23.70;38.38
57574;BME280;63722;48.858;21.906;2023-02-01T09:09:38;98143.72;;;23.72;38.46
57574;BME280;63722;48.858;21.906;2023-02-01T09:12:04;98130.09;;;23.69;38.28
57574;BME280;63722;48.858;21.906;2023-02-01T09:14:30;98145.88;;;23.70;38.50
57574;BME280;63722;48.858;21.906;2023-02-01T09:16:55;98129.84;;;23.65;38.69
57574;BME280;63722;48.858;21.906;2023-02-01T09:19:21;98131.94;;;23.73;38.48
57574;BME280;63722;48.858;21.906;2023-02-01T09:21:46;98127.69;;;23.67;38.73
57574;BME280;63722;48.858;21.906;2023-02-01T09:24:12;98126.03;;;23.76;38.53
57574;BME280;63722;48.858;21.906;2023-02-01T09:26:37;98124.19;;;23.72;38.63
57574;BME280;63722;48.858;21.906;2023-02-01T09:29:03;98119.56;;;23.83;38.73
57574;BME280;63722;48.858;21.906;2023-02-01T09:31:30;98130.81;;;23.80;38.94
57574;BME280;63722;48.858;21.906;2023-02-01T09:33:56;98133.00;;;23.72;38.78
57574;BME280;63722;48.858;21.906;2023-02-01T09:36:22;98123.06;;;23.78;38.79
57574;BME280;63722;48.858;21.906;2023-02-01T09:38:48;98116.09;;;23.77;38.92
57574;BME280;63722;48.858;21.906;2023-02-01T09:41:48;98126.53;;;23.78;38.88
57574;BME280;63722;48.858;21.906;2023-02-01T09:46:45;98129.81;;;23.70;39.21
57574;BME280;63722;48.858;21.906;2023-02-01T09:49:24;98127.38;;;23.74;39.11
57574;BME280;63722;48.858;21.906;2023-02-01T09:51:52;98116.97;;;23.67;39.09
57574;BME280;63722;48.858;21.906;2023-02-01T09:54:24;98124.97;;;23.72;39.30
57574;BME280;63722;48.858;21.906;2023-02-01T10:01:50;98127.63;;;23.77;39.55
57574;BME280;63722;48.858;21.906;2023-02-01T10:04:16;98116.94;;;23.77;39.48
57574;BME280;63722;48.858;21.906;2023-02-01T10:09:52;98112.13;;;23.69;39.47
57574;BME280;63722;48.858;21.906;2023-02-01T10:26:24;98062.97;;;23.60;39.35
57574;BME280;63722;48.858;21.906;2023-02-01T10:28:56;98050.97;;;23.52;39.49
57574;BME280;63722;48.858;21.906;2023-02-01T10:31:35;98053.97;;;23.46;39.35
57574;BME280;63722;48.858;21.906;2023-02-01T10:34:17;98057.13;;;23.53;39.26
57574;BME280;63722;48.858;21.906;2023-02-01T10:36:56;98058.47;;;23.50;39.62
57574;BME280;63722;48.858;21.906;2023-02-01T10:39:22;98043.53;;;23.44;39.95
57574;BME280;63722;48.858;21.906;2023-02-01T10:41:48;98044.94;;;23.36;40.21
57574;BME280;63722;48.858;21.906;2023-02-01T10:44:24;98041.09;;;23.53;40.21
57574;BME280;63722;48.858;21.906;2023-02-01T10:46:50;98034.41;;;23.50;40.25
57574;BME280;63722;48.858;21.906;2023-02-01T10:49:38;98039.72;;;23.55;40.33
57574;BME280;63722;48.858;21.906;2023-02-01T10:52:13;98034.69;;;23.49;40.46
57574;BME280;63722;48.858;21.906;2023-02-01T10:54:42;98033.56;;;23.55;40.47
57574;BME280;63722;48.858;21.906;2023-02-01T10:57:24;98026.94;;;23.47;40.52
57574;BME280;63722;48.858;21.906;2023-02-01T10:59:55;98030.56;;;23.62;40.43
57574;BME280;63722;48.858;21.906;2023-02-01T11:02:31;98032.44;;;23.61;40.59
57574;BME280;63722;48.858;21.906;2023-02-01T11:05:16;98023.94;;;23.54;40.62
57574;BME280;63722;48.858;21.906;2023-02-01T11:07:56;98028.69;;;23.62;40.49
57574;BME280;63722;48.858;21.906;2023-02-01T11:10:39;98014.84;;;23.55;40.56
57574;BME280;63722;48.858;21.906;2023-02-01T11:13:17;98016.94;;;23.58;40.43
57574;BME280;63722;48.858;21.906;2023-02-01T11:15:44;98012.72;;;23.52;40.84
57574;BME280;63722;48.858;21.906;2023-02-01T11:18:18;98016.22;;;23.47;40.84
57574;BME280;63722;48.858;21.906;2023-02-01T11:20:45;98014.63;;;23.46;40.96
57574;BME280;63722;48.858;21.906;2023-02-01T11:23:20;98004.72;;;23.47;40.41
57574;BME280;63722;48.858;21.906;2023-02-01T11:25:52;97994.25;;;23.50;41.11
57574;BME280;63722;48.858;21.906;2023-02-01T11:28:21;97995.03;;;23.51;41.33
57574;BME280;63722;48.858;21.906;2023-02-01T11:30:47;97999.28;;;23.57;41.03
57574;BME280;63722;48.858;21.906;2023-02-01T11:33:17;97990.19;;;23.58;40.85
57574;BME280;63722;48.858;21.906;2023-02-01T11:35:44;97994.97;;;23.61;40.95
57574;BME280;63722;48.858;21.906;2023-02-01T11:38:29;97996.03;;;23.60;40.92
57574;BME280;63722;48.858;21.906;2023-02-01T11:40:55;97989.06;;;23.64;41.04
57574;BME280;63722;48.858;21.906;2023-02-01T11:43:35;97990.13;;;23.63;41.23
57574;BME280;63722;48.858;21.906;2023-02-01T11:46:02;97980.09;;;23.45;41.18
57574;BME280;63722;48.858;21.906;2023-02-01T11:48:30;97978.44;;;23.54;41.18
57574;BME280;63722;48.858;21.906;2023-02-01T11:51:01;97979.81;;;23.51;41.16
57574;BME280;63722;48.858;21.906;2023-02-01T11:59:22;97959.75;;;23.49;41.44
57574;BME280;63722;48.858;21.906;2023-02-01T12:05:00;97949.63;;;23.01;39.54
57574;BME280;63722;48.858;21.906;2023-02-01T12:07:47;97948.56;;;23.02;40.25
57574;BME280;63722;48.858;21.906;2023-02-01T12:10:39;97936.50;;;23.10;39.98
57574;BME280;63722;48.858;21.906;2023-02-01T12:13:19;97946.91;;;23.06;40.42
57574;BME280;63722;48.858;21.906;2023-02-01T12:16:10;97945.84;;;23.07;39.96
57574;BME280;63722;48.858;21.906;2023-02-01T12:21:49;97955.78;;;23.01;39.93
57574;BME280;63722;48.858;21.906;2023-02-01T12:24:51;97946.13;;;23.11;39.30
57574;BME280;63722;48.858;21.906;2023-02-01T12:32:43;97953.59;;;23.14;39.71
57574;BME280;63722;48.858;21.906;2023-02-01T12:39:08;97953.03;;;23.17;39.97
57574;BME280;63722;48.858;21.906;2023-02-01T12:41:33;97951.34;;;23.26;39.96
57574;BME280;63722;48.858;21.906;2023-02-01T12:50:00;97958.31;;;23.27;40.22
57574;BME280;63722;48.858;21.906;2023-02-01T12:52:38;97947.09;;;23.25;40.24
57574;BME280;63722;48.858;21.906;2023-02-01T12:55:14;97943.03;;;23.33;40.39
57574;BME280;63722;48.858;21.906;2023-02-01T12:57:45;97950.84;;;23.24;40.74
57574;BME280;63722;48.858;21.906;2023-02-01T13:00:23;97948.66;;;23.31;40.34
57574;BME280;63722;48.858;21.906;2023-02-01T13:02:55;97951.53;;;23.40;40.36
57574;BME280;63722;48.858;21.906;2023-02-01T13:08:07;97953.75;;;23.28;40.49
57574;BME280;63722;48.858;21.906;2023-02-01T13:10:39;97955.69;;;23.22;40.82
57574;BME280;63722;48.858;21.906;2023-02-01T13:16:05;97938.25;;;23.30;40.69
57574;BME280;63722;48.858;21.906;2023-02-01T13:18:38;97948.34;;;23.38;41.24
57574;BME280;63722;48.858;21.906;2023-02-01T13:21:16;97946.16;;;23.40;40.55
57574;BME280;63722;48.858;21.906;2023-02-01T13:23:44;97947.06;;;23.30;41.14
57574;BME280;63722;48.858;21.906;2023-02-01T13:26:11;97937.97;;;23.26;40.94
57574;BME280;63722;48.858;21.906;2023-02-01T13:31:29;97927.69;;;23.44;41.46
57574;BME280;63722;48.858;21.906;2023-02-01T13:42:23;97932.75;;;23.45;41.18
57574;BME280;63722;48.858;21.906;2023-02-01T13:45:18;97935.63;;;23.54;41.07
57574;BME280;63722;48.858;21.906;2023-02-01T13:47:47;97937.78;;;23.52;41.46
57574;BME280;63722;48.858;21.906;2023-02-01T13:52:58;97930.81;;;23.51;41.16
57574;BME280;63722;48.858;21.906;2023-02-01T13:55:27;97926.56;;;23.50;41.26
57574;BME280;63722;48.858;21.906;2023-02-01T14:00:39;97931.09;;;23.49;41.22
57574;BME280;63722;48.858;21.906;2023-02-01T14:10:57;97921.72;;;23.52;41.20
57574;BME280;63722;48.858;21.906;2023-02-01T14:13:39;97914.47;;;23.57;41.35
57574;BME280;63722;48.858;21.906;2023-02-01T14:23:42;97916.94;;;23.49;41.47
57574;BME280;63722;48.858;21.906;2023-02-01T14:31:50;97903.47;;;23.59;41.50
57574;BME280;63722;48.858;21.906;2023-02-01T14:34:31;97897.66;;;23.52;41.42
57574;BME280;63722;48.858;21.906;2023-02-01T14:37:02;97887.22;;;23.50;41.58
57574;BME280;63722;48.858;21.906;2023-02-01T14:39:35;97892.22;;;23.57;41.53
57574;BME280;63722;48.858;21.906;2023-02-01T14:44:41;97898.50;;;23.47;41.71
57574;BME280;63722;48.858;21.906;2023-02-01T14:49:39;97897.22;;;23.39;41.83
57574;BME280;63722;48.858;21.906;2023-02-01T14:52:16;97888.16;;;23.35;41.88
57574;BME280;63722;48.858;21.906;2023-02-01T14:54:46;97892.75;;;23.30;41.83
57574;BME280;63722;48.858;21.906;2023-02-01T14:57:19;97890.94;;;23.25;42.04
57574;BME280;63722;48.858;21.906;2023-02-01T14:59:46;97897.34;;;23.24;42.00
57574;BME280;63722;48.858;21.906;2023-02-01T15:02:21;97888.53;;;23.23;41.94
57574;BME280;63722;48.858;21.906;2023-02-01T15:04:54;97888.81;;;23.22;42.10
57574;BME280;63722;48.858;21.906;2023-02-01T15:07:22;97890.16;;;23.19;41.90
57574;BME280;63722;48.858;21.906;2023-02-01T15:09:50;97892.06;;;23.19;41.69
57574;BME280;63722;48.858;21.906;2023-02-01T15:12:27;97895.72;;;23.28;41.51
57574;BME280;63722;48.858;21.906;2023-02-01T15:15:15;97898.97;;;23.20;41.74